Bryant, Wisconsin
Current Conditions -  °F | °C
As of 1:35 AM on Wednesday 22 Oct 2014 (Local Time) from KAIG Reporting Station
Clear Clear  
Wind Chill: -3°   Ceiling: Unl
Heat Index:   Visibility: 10mi
Dew Point: -2°   Wind: 6mph
Humidity: 90%   Direction: 110°ESE
Pressure: 30.3"   Gusts: NA
Location:  45.21°N, 89.02°W
Report Text: KAIG 220635Z AUTO 11005KT 10SM CLR 00/M02 A3030 RMK AO2 T10031017
Loading
Personal Weather Stations






























Interactive Weather Map
Tropical Storm Tracking
New forecast layout! Learn more

10-Day Weather Forecast

Advertisements
Track Severe Weather on mobile